Time;durP1;ratioP1;P1;durP2;ratioP2;P2;SDS_P1;SDS_P2;PMS_P1;PMS_P2;Temp;Humidity;BMP_temperature;BMP_pressure;BME280_temperature;BME280_humidity;BME280_pressure;Samples;Min_cycle;Max_cycle;Signal;HPM_P1;HPM_P2
2022/07/12 00:01:26;;;;;;;;;5.00;4.00;;;;;24.03;100.00;101727.81;5014446;28;45523;-75
2022/07/12 00:03:51;;;;;;;;;3.33;3.33;;;;;23.94;100.00;101719.13;5015495;28;47194;-74
2022/07/12 00:06:16;;;;;;;;;3.00;3.00;;;;;23.94;100.00;101727.53;5030661;28;45811;-77
2022/07/12 00:08:42;;;;;;;;;3.00;3.00;;;;;23.91;100.00;101728.09;5029509;28;45365;-77
2022/07/12 00:11:07;;;;;;;;;3.00;3.00;;;;;23.88;100.00;101728.63;5023651;28;45492;-75
2022/07/12 00:13:32;;;;;;;;;3.00;3.00;;;;;23.84;100.00;101722.69;5021341;28;47056;-75
2022/07/12 00:15:58;;;;;;;;;4.00;3.00;;;;;23.78;100.00;101718.19;5024666;28;45466;-76
2022/07/12 00:18:24;;;;;;;;;5.00;2.67;;;;;23.76;100.00;101726.88;5018997;28;45400;-75
2022/07/12 00:20:50;;;;;;;;;3.67;3.33;;;;;23.74;100.00;101733.84;5020838;28;45555;-76
2022/07/12 00:23:16;;;;;;;;;2.33;2.33;;;;;23.68;100.00;101734.94;5012325;28;47278;-76
2022/07/12 00:25:42;;;;;;;;;3.00;2.00;;;;;23.69;100.00;101734.66;5040053;28;45692;-76
2022/07/12 00:28:07;;;;;;;;;4.00;4.00;;;;;23.68;100.00;101735.78;5025425;28;45650;-76
2022/07/12 00:30:33;;;;;;;;;3.67;3.67;;;;;23.59;100.00;101720.63;5022898;28;45755;-75
2022/07/12 00:32:58;;;;;;;;;3.67;3.67;;;;;23.61;100.00;101727.63;5015303;28;46257;-74
2022/07/12 00:35:24;;;;;;;;;3.67;2.33;;;;;23.60;100.00;101728.75;5014186;28;45738;-74
2022/07/12 00:37:49;;;;;;;;;5.33;4.00;;;;;23.54;100.00;101715.84;5014080;28;45753;-75
2022/07/12 00:40:15;;;;;;;;;4.33;1.33;;;;;23.55;100.00;101723.13;5023847;28;45428;-75
2022/07/12 00:42:40;;;;;;;;;4.00;4.00;;;;;23.53;100.00;101725.34;5013262;28;45507;-74
2022/07/12 00:45:07;;;;;;;;;3.67;3.67;;;;;23.50;100.00;101723.09;5016688;28;45786;-74
2022/07/12 00:47:36;;;;;;;;;2.00;2.00;;;;;23.50;100.00;101727.88;5011558;28;45534;-74
2022/07/12 00:50:09;;;;;;;;;7.00;3.33;;;;;23.48;100.00;101724.50;5028141;28;45339;-75
2022/07/12 00:52:36;;;;;;;;;3.33;3.00;;;;;23.44;100.00;101719.44;5020157;28;46244;-75
2022/07/12 00:55:02;;;;;;;;;2.67;2.67;;;;;23.42;100.00;101721.66;5013354;28;45652;-75
2022/07/12 00:57:29;;;;;;;;;3.67;2.67;;;;;23.36;100.00;101711.56;5023072;28;45292;-75
2022/07/12 00:59:54;;;;;;;;;2.00;2.00;;;;;23.36;100.00;101721.91;5019913;28;45787;-76
2022/07/12 01:02:20;;;;;;;;;2.67;2.67;;;;;23.34;100.00;101711.00;5017595;28;45833;-75
2022/07/12 01:04:46;;;;;;;;;3.33;3.33;;;;;23.30;100.00;101706.22;5032471;28;45757;-76
2022/07/12 01:07:12;;;;;;;;;2.00;2.00;;;;;23.29;100.00;101702.56;5027564;28;45736;-76
2022/07/12 01:09:38;;;;;;;;;4.00;4.00;;;;;23.26;100.00;101705.91;5019108;28;45699;-76
2022/07/12 01:12:04;;;;;;;;;3.00;3.00;;;;;23.24;100.00;101714.56;5027651;28;45699;-76
2022/07/12 01:14:30;;;;;;;;;4.00;3.00;;;;;23.22;100.00;101711.19;5014926;28;45477;-75
2022/07/12 01:16:56;;;;;;;;;4.00;4.00;;;;;23.20;100.00;101712.56;5013625;28;45334;-75
2022/07/12 01:19:23;;;;;;;;;2.33;2.33;;;;;23.19;100.00;101722.94;5014568;28;45594;-72
2022/07/12 01:21:50;;;;;;;;;3.67;2.67;;;;;23.17;100.00;101719.56;5026569;28;45724;-73
2022/07/12 01:24:18;;;;;;;;;2.00;2.00;;;;;23.15;100.00;101715.34;5029401;28;45422;-73
2022/07/12 01:26:44;;;;;;;;;3.00;3.00;;;;;23.15;100.00;101720.97;5014191;28;45659;-74
2022/07/12 01:29:10;;;;;;;;;3.33;3.33;;;;;23.11;100.00;101715.03;5013949;28;45336;-74
2022/07/12 01:31:36;;;;;;;;;3.00;2.00;;;;;23.11;100.00;101706.66;5013436;28;47087;-74
2022/07/12 01:34:03;;;;;;;;;6.33;5.00;;;;;23.04;100.00;101703.19;5014463;28;45664;-73
2022/07/12 01:36:29;;;;;;;;;2.00;2.00;;;;;23.06;100.00;101709.38;5014496;28;45826;-73
2022/07/12 01:38:54;;;;;;;;;4.00;4.00;;;;;22.97;100.00;101695.06;5016728;28;46490;-74
2022/07/12 01:41:21;;;;;;;;;3.33;2.67;;;;;22.99;100.00;101704.00;5022806;28;47248;-73
2022/07/12 01:43:47;;;;;;;;;3.33;3.33;;;;;23.01;100.00;101704.59;5031260;28;45546;-75
2022/07/12 01:46:12;;;;;;;;;2.00;2.00;;;;;22.97;100.00;101709.03;5030604;28;45688;-77
2022/07/12 01:48:38;;;;;;;;;3.33;3.33;;;;;22.92;100.00;101707.06;5020933;28;45820;-77
2022/07/12 01:51:04;;;;;;;;;3.00;3.00;;;;;22.93;100.00;101713.50;5026984;28;45365;-76
2022/07/12 01:53:30;;;;;;;;;3.00;3.00;;;;;22.91;100.00;101712.91;5014264;28;45640;-76
2022/07/12 01:55:55;;;;;;;;;5.00;4.00;;;;;22.90;100.00;101719.63;5027437;28;45766;-76
2022/07/12 01:58:21;;;;;;;;;4.33;3.67;;;;;22.86;100.00;101710.06;5034007;28;45557;-76
2022/07/12 02:00:51;;;;;;;;;2.33;2.33;;;;;22.84;100.00;101712.31;5017650;28;45903;-77
2022/07/12 02:03:17;;;;;;;;;4.00;4.00;;;;;22.82;100.00;101717.34;5014790;28;45556;-79
2022/07/12 02:05:43;;;;;;;;;5.67;4.33;;;;;22.79;100.00;101710.31;5015003;28;45443;-76
2022/07/12 02:08:08;;;;;;;;;4.33;4.33;;;;;22.77;100.00;101715.34;5033002;28;46165;-76
2022/07/12 02:10:34;;;;;;;;;4.00;4.00;;;;;22.76;100.00;101718.41;5034461;28;45761;-77
2022/07/12 02:13:03;;;;;;;;;4.00;3.33;;;;;22.71;100.00;101716.38;5039059;28;45984;-77
2022/07/12 02:15:28;;;;;;;;;5.00;5.00;;;;;22.66;100.00;101706.00;5030334;28;45345;-75
2022/07/12 02:17:54;;;;;;;;;5.00;5.00;;;;;22.65;100.00;101718.31;5016856;28;45488;-74
2022/07/12 02:20:19;;;;;;;;;4.00;4.00;;;;;22.61;100.00;101711.56;5014086;28;46856;-75
2022/07/12 02:22:45;;;;;;;;;5.67;5.67;;;;;22.60;100.00;101720.22;5013723;28;45795;-73
2022/07/12 02:25:10;;;;;;;;;4.33;4.00;;;;;22.55;100.00;101718.22;5014213;28;45466;-75
2022/07/12 02:27:37;;;;;;;;;5.00;5.00;;;;;22.48;100.00;101717.59;5026222;28;45459;-74
2022/07/12 02:30:03;;;;;;;;;5.00;5.00;;;;;22.47;100.00;101715.91;5025853;28;45405;-73
2022/07/12 02:32:28;;;;;;;;;3.33;3.33;;;;;22.45;100.00;101720.94;5022003;28;45714;-73
2022/07/12 02:34:54;;;;;;;;;4.00;4.00;;;;;22.38;100.00;101721.13;5044300;28;45742;-74
2022/07/12 02:37:19;;;;;;;;;4.00;4.00;;;;;22.32;100.00;101719.41;5029355;28;45647;-74
2022/07/12 02:39:44;;;;;;;;;4.00;4.00;;;;;22.30;100.00;101722.41;5032398;28;46115;-74
2022/07/12 02:42:10;;;;;;;;;6.00;4.67;;;;;22.27;100.00;101722.94;5015835;28;45612;-73
2022/07/12 02:44:35;;;;;;;;;4.67;4.67;;;;;22.22;100.00;101725.72;5028346;28;45385;-74
2022/07/12 02:47:00;;;;;;;;;4.67;4.67;;;;;22.18;100.00;101728.16;5016675;28;45441;-75
2022/07/12 02:49:26;;;;;;;;;3.67;3.67;;;;;22.16;100.00;101735.16;5031802;28;48542;-74
2022/07/12 02:51:51;;;;;;;;;4.00;4.00;;;;;22.13;100.00;101732.88;5021596;28;45658;-73
2022/07/12 02:54:16;;;;;;;;;5.00;4.00;;;;;22.08;100.00;101727.22;5015597;28;45655;-74
2022/07/12 02:56:42;;;;;;;;;7.33;6.33;;;;;22.04;100.00;101735.28;5026683;28;45681;-74
2022/07/12 02:59:07;;;;;;;;;7.33;7.33;;;;;22.01;100.00;101725.47;5025779;28;46136;-74
2022/07/12 03:01:33;;;;;;;;;8.67;8.00;;;;;21.98;100.00;101736.34;5012598;28;45760;-75
2022/07/12 03:03:58;;;;;;;;;6.67;6.67;;;;;21.93;100.00;101737.13;5012975;28;45441;-76
2022/07/12 03:06:24;;;;;;;;;8.67;8.67;;;;;21.91;100.00;101744.06;5019189;28;46079;-75
2022/07/12 03:08:50;;;;;;;;;6.67;6.00;;;;;21.87;100.00;101735.34;5028138;28;46227;-74
2022/07/12 03:11:15;;;;;;;;;8.67;8.67;;;;;21.85;100.00;101743.16;5021771;28;45778;-74
2022/07/12 03:13:41;;;;;;;;;9.67;9.00;;;;;21.81;100.00;101739.19;5026345;28;45381;-73
2022/07/12 03:16:07;;;;;;;;;9.67;8.33;;;;;21.79;100.00;101742.25;5013802;28;45432;-76
2022/07/12 03:18:33;;;;;;;;;10.33;10.00;;;;;21.81;100.00;101739.19;5023637;28;45441;-77
2022/07/12 03:20:58;;;;;;;;;7.00;7.00;;;;;21.75;100.00;101734.66;5025737;28;45678;-76
2022/07/12 03:23:24;;;;;;;;;9.00;9.00;;;;;21.78;100.00;101736.94;5021388;28;45397;-75
2022/07/12 03:25:49;;;;;;;;;8.00;7.00;;;;;21.76;100.00;101734.41;5016559;28;45375;-76
2022/07/12 03:28:15;;;;;;;;;9.00;6.33;;;;;21.72;100.00;101727.63;5014864;28;45726;-76
2022/07/12 03:30:40;;;;;;;;;4.00;4.00;;;;;21.68;100.00;101732.91;5031613;28;45358;-74
2022/07/12 03:33:06;;;;;;;;;5.67;5.67;;;;;21.68;100.00;101741.28;5021691;28;45679;-74
2022/07/12 03:35:31;;;;;;;;;7.33;7.00;;;;;21.64;100.00;101736.47;5013124;28;45666;-76
2022/07/12 03:37:57;;;;;;;;;6.67;5.00;;;;;21.61;100.00;101746.22;5015266;28;46096;-76
2022/07/12 03:40:22;;;;;;;;;7.00;6.33;;;;;21.54;100.00;101739.97;5014810;28;45744;-76
2022/07/12 03:42:48;;;;;;;;;7.00;7.00;;;;;21.55;100.00;101744.47;5012307;28;45435;-75
2022/07/12 03:45:15;;;;;;;;;7.00;7.00;;;;;21.53;100.00;101741.09;5012127;28;45409;-74
2022/07/12 03:47:41;;;;;;;;;7.67;5.67;;;;;21.49;100.00;101756.63;5017104;28;45787;-74
2022/07/12 03:50:11;;;;;;;;;8.67;5.33;;;;;21.48;100.00;101754.94;5017792;28;45857;-73
2022/07/12 03:52:37;;;;;;;;;11.33;10.00;;;;;21.43;100.00;101754.88;5014435;28;45798;-75
2022/07/12 03:55:04;;;;;;;;;6.33;6.33;;;;;21.46;100.00;101757.97;5012248;28;45893;-75
2022/07/12 03:57:29;;;;;;;;;5.33;5.33;;;;;21.46;100.00;101768.31;5014665;28;46398;-74
2022/07/12 03:59:56;;;;;;;;;11.33;8.67;;;;;21.44;100.00;101765.78;5011709;28;45537;-75
2022/07/12 04:02:22;;;;;;;;;5.33;4.00;;;;;21.44;100.00;101767.72;5012182;28;45928;-76
2022/07/12 04:04:47;;;;;;;;;6.00;4.33;;;;;21.45;100.00;101772.19;5015833;28;45566;-77
2022/07/12 04:07:13;;;;;;;;;6.67;5.67;;;;;21.52;100.00;101772.88;5016683;28;46246;-75
2022/07/12 04:09:38;;;;;;;;;4.33;4.33;;;;;21.67;100.00;101773.09;5014578;28;45830;-74
2022/07/12 04:12:04;;;;;;;;;4.00;4.00;;;;;21.91;100.00;101770.03;5015781;28;45388;-75
2022/07/12 04:14:30;;;;;;;;;4.33;4.33;;;;;22.17;100.00;101778.72;5026960;28;47083;-74
2022/07/12 04:16:56;;;;;;;;;6.67;5.00;;;;;22.38;100.00;101763.91;5011534;28;45480;-74
2022/07/12 04:19:27;;;;;;;;;4.00;3.33;;;;;22.64;100.00;101760.53;5012180;28;45733;-75
2022/07/12 04:21:55;;;;;;;;;6.67;5.00;;;;;22.68;100.00;101768.13;5012254;28;45450;-76
2022/07/12 04:24:21;;;;;;;;;8.00;5.00;;;;;22.64;100.00;101769.75;5012359;28;45395;-74
2022/07/12 04:26:48;;;;;;;;;7.33;5.67;;;;;22.56;100.00;101761.88;5022463;28;45435;-75
2022/07/12 04:29:15;;;;;;;;;5.67;5.67;;;;;22.54;100.00;101769.66;5012297;28;45401;-74
2022/07/12 04:31:40;;;;;;;;;9.00;6.67;;;;;22.50;100.00;101768.47;5023215;28;45430;-73
2022/07/12 04:34:06;;;;;;;;;9.00;4.67;;;;;22.46;100.00;101770.97;5022690;28;45444;-76
2022/07/12 04:36:32;;;;;;;;;5.67;5.67;;;;;22.43;100.00;101776.25;5021593;28;46582;-75
2022/07/12 04:38:58;;;;;;;;;9.00;4.33;;;;;22.43;100.00;101770.69;5023204;28;45864;-74
2022/07/12 04:41:23;;;;;;;;;5.00;5.00;;;;;22.46;100.00;101775.75;5017821;28;45362;-76
2022/07/12 04:43:49;;;;;;;;;6.33;6.00;;;;;22.50;100.00;101765.69;5032669;28;45468;-76
2022/07/12 04:46:14;;;;;;;;;5.67;5.00;;;;;22.62;100.00;101768.31;5022653;28;45372;-72
2022/07/12 04:48:39;;;;;;;;;4.67;4.67;;;;;22.86;100.00;101774.41;5016406;28;45442;-77
2022/07/12 04:51:05;;;;;;;;;7.00;6.00;;;;;23.31;100.00;101764.72;5023389;28;45582;-75
2022/07/12 04:53:30;;;;;;;;;7.33;6.33;;;;;23.89;100.00;101758.31;5037851;28;45365;-76
2022/07/12 04:55:56;;;;;;;;;8.33;6.00;;;;;24.89;100.00;101767.50;5024747;28;46084;-77
2022/07/12 04:58:23;;;;;;;;;7.33;6.00;;;;;25.93;100.00;101761.41;5024070;28;45663;-79
2022/07/12 05:00:48;;;;;;;;;5.33;5.00;;;;;26.91;100.00;101756.00;5024896;28;45681;-75
2022/07/12 05:03:14;;;;;;;;;8.33;4.67;;;;;27.80;100.00;101757.59;5023427;28;45493;-77
2022/07/12 05:05:39;;;;;;;;;8.00;6.00;;;;;28.58;100.00;101759.34;5026692;28;47146;-77
2022/07/12 05:08:05;;;;;;;;;3.67;3.67;;;;;29.35;100.00;101766.53;5019108;28;45911;-77
2022/07/12 05:10:30;;;;;;;;;8.00;4.00;;;;;30.10;100.00;101765.25;5020167;28;45465;-77
2022/07/12 05:12:56;;;;;;;;;5.00;5.00;;;;;30.73;95.92;101754.19;5025332;28;45891;-76
2022/07/12 05:15:21;;;;;;;;;5.33;5.33;;;;;31.35;90.33;101769.59;5021044;28;46102;-75
2022/07/12 05:17:47;;;;;;;;;7.00;6.00;;;;;31.82;84.82;101772.81;5019905;28;45816;-77
2022/07/12 05:20:12;;;;;;;;;11.33;6.33;;;;;32.14;81.08;101778.41;5028976;28;45983;-73
2022/07/12 05:22:38;;;;;;;;;7.00;7.00;;;;;32.48;76.43;101771.91;5025921;28;45978;-80
2022/07/12 05:25:05;;;;;;;;;9.00;5.67;;;;;32.84;72.05;101779.28;5022056;28;45399;-75
2022/07/12 05:27:30;;;;;;;;;8.00;6.67;;;;;33.01;69.97;101778.44;5021817;28;45808;-76
2022/07/12 05:29:56;;;;;;;;;7.67;6.33;;;;;33.23;66.48;101783.06;5021683;28;45423;-75
2022/07/12 05:32:23;;;;;;;;;6.33;4.00;;;;;33.32;65.67;101785.06;5023667;28;45335;-74
2022/07/12 05:34:49;;;;;;;;;4.50;4.50;;;;;33.50;63.92;101780.97;5021850;28;45426;-75
2022/07/12 05:37:14;;;;;;;;;3.25;2.75;;;;;33.58;62.07;101791.50;5023537;28;45708;-73
2022/07/12 05:39:40;;;;;;;;;9.67;7.00;;;;;33.52;61.48;101800.53;5028985;28;45384;-75
2022/07/12 05:42:05;;;;;;;;;9.00;6.75;;;;;33.66;60.81;101808.88;5029272;28;45341;-73
2022/07/12 05:44:30;;;;;;;;;10.00;5.25;;;;;33.89;59.54;101801.72;5031736;28;45455;-74
2022/07/12 05:46:56;;;;;;;;;6.50;6.50;;;;;34.23;57.06;101794.16;5035043;28;45811;-74
2022/07/12 05:49:21;;;;;;;;;5.25;5.00;;;;;34.52;55.18;101800.97;5027427;28;45767;-78
2022/07/12 05:54:32;;;;;;;;;4.75;3.50;;;;;35.14;50.97;101801.28;5033604;28;45885;-73
2022/07/12 05:56:58;;;;;;;;;4.00;3.75;;;;;35.36;49.37;101800.03;5033249;28;45452;-76
2022/07/12 05:59:24;;;;;;;;;3.75;3.75;;;;;35.82;47.64;101800.00;5035847;28;45326;-74
2022/07/12 06:01:49;;;;;;;;;3.00;2.00;;;;;36.11;46.00;101804.63;5032373;28;45511;-73
2022/07/12 06:04:15;;;;;;;;;6.25;5.00;;;;;36.57;44.54;101808.13;5023689;28;47461;-74
2022/07/12 06:06:41;;;;;;;;;4.75;4.00;;;;;37.10;43.05;101812.91;5027790;28;45330;-76
2022/07/12 06:09:07;;;;;;;;;5.00;5.00;;;;;37.56;41.32;101798.19;5022991;28;45650;-75
2022/07/12 06:11:33;;;;;;;;;5.25;5.25;;;;;38.05;40.51;101811.28;5020750;28;45321;-76
2022/07/12 06:13:59;;;;;;;;;4.00;4.00;;;;;38.20;39.33;101812.50;5028765;28;46260;-73
2022/07/12 06:16:25;;;;;;;;;6.00;4.25;;;;;38.41;38.25;101817.88;5018967;28;45797;-75
2022/07/12 06:18:50;;;;;;;;;6.50;5.25;;;;;38.86;37.77;101816.41;5029328;28;45483;-73
2022/07/12 06:21:16;;;;;;;;;5.25;3.75;;;;;39.33;37.18;101817.31;5025616;28;45835;-71
2022/07/12 06:23:41;;;;;;;;;7.00;5.00;;;;;39.82;34.91;101825.16;5016043;28;46139;-71
2022/07/12 06:26:06;;;;;;;;;4.00;3.50;;;;;40.23;33.88;101819.69;5018827;28;45468;-75
2022/07/12 06:28:32;;;;;;;;;6.00;4.00;;;;;40.65;33.37;101809.19;5022865;28;45589;-73
2022/07/12 06:30:57;;;;;;;;;6.75;4.50;;;;;41.02;31.97;101817.03;5012265;28;45378;-77
2022/07/12 06:33:23;;;;;;;;;4.50;4.00;;;;;41.44;31.33;101817.88;5023393;28;45678;-75
2022/07/12 06:35:48;;;;;;;;;5.50;4.00;;;;;41.65;30.69;101808.59;5013208;28;45392;-77
2022/07/12 06:38:13;;;;;;;;;9.33;9.33;;;;;41.46;30.90;101812.56;5020439;28;45645;-74
2022/07/12 06:40:39;;;;;;;;;7.00;3.33;;;;;41.07;31.13;101810.09;5027806;28;45599;-74
2022/07/12 06:43:12;;;;;;;;;7.00;6.00;;;;;41.00;31.00;101812.91;5013378;28;45580;-70
2022/07/12 06:45:38;;;;;;;;;4.67;4.67;;;;;40.95;30.89;101805.44;5012786;28;45416;-71
2022/07/12 06:48:05;;;;;;;;;5.33;4.67;;;;;41.15;30.29;101814.69;5013397;28;45440;-72
2022/07/12 06:50:30;;;;;;;;;6.00;4.75;;;;;41.26;30.09;101809.88;5027081;28;45282;-68
2022/07/12 06:52:56;;;;;;;;;4.25;4.25;;;;;41.47;29.83;101820.81;5013523;28;46638;-68
2022/07/12 06:55:22;;;;;;;;;4.00;4.00;;;;;41.91;29.26;101815.44;5013629;28;45669;-69
2022/07/12 06:57:48;;;;;;;;;3.50;3.50;;;;;42.45;28.71;101818.66;5014012;28;45665;-70
2022/07/12 07:00:14;;;;;;;;;4.00;4.00;;;;;42.84;27.42;101820.91;5025960;28;45612;-70
2022/07/12 07:02:39;;;;;;;;;5.33;4.67;;;;;43.23;27.57;101825.97;5014667;28;46015;-70
2022/07/12 07:05:05;;;;;;;;;4.67;4.00;;;;;43.40;27.22;101821.44;5020456;28;45722;-69
2022/07/12 07:07:31;;;;;;;;;4.00;4.00;;;;;43.75;26.29;101825.59;5024844;28;45468;-70
2022/07/12 07:09:56;;;;;;;;;5.00;4.00;;;;;44.24;25.69;101823.06;5031035;28;45716;-69
2022/07/12 07:12:22;;;;;;;;;5.33;4.00;;;;;44.97;25.68;101818.66;5045211;28;45981;-71
2022/07/12 07:14:48;;;;;;;;;2.33;2.00;;;;;45.56;24.36;101819.91;5028582;28;45733;-72
2022/07/12 07:17:19;;;;;;;;;3.00;3.00;;;;;46.09;24.03;101817.78;5029026;28;45721;-68
2022/07/12 07:19:45;;;;;;;;;4.67;3.33;;;;;46.41;23.81;101822.41;5020067;28;45573;-70
2022/07/12 07:22:11;;;;;;;;;5.00;5.00;;;;;47.18;22.83;101826.78;5027185;28;45516;-72
2022/07/12 07:24:36;;;;;;;;;6.67;5.00;;;;;47.68;22.31;101825.13;5020364;28;45778;-72
2022/07/12 07:27:02;;;;;;;;;5.00;5.00;;;;;47.96;21.68;101817.19;5020981;28;45537;-73
2022/07/12 07:32:12;;;;;;;;;9.67;6.67;;;;;48.89;20.42;101835.66;5011874;28;45947;-69
2022/07/12 07:34:38;;;;;;;;;8.33;5.67;;;;;49.21;20.23;101821.63;5012231;28;45412;-69
2022/07/12 07:37:03;;;;;;;;;5.00;5.00;;;;;49.46;19.98;101824.69;5012172;28;45441;-69
2022/07/12 07:39:29;;;;;;;;;4.00;4.00;;;;;49.61;19.72;101822.25;5022816;28;45801;-69
2022/07/12 07:41:54;;;;;;;;;5.33;4.67;;;;;49.57;19.45;101827.38;5018563;28;45720;-69
2022/07/12 07:44:20;;;;;;;;;8.00;4.67;;;;;49.49;19.74;101817.16;5011947;28;45719;-69
2022/07/12 07:46:45;;;;;;;;;5.67;4.00;;;;;49.49;19.65;101825.91;5027106;28;45559;-69
2022/07/12 07:49:11;;;;;;;;;4.00;4.00;;;;;49.69;18.90;101822.06;5020789;28;45629;-68
2022/07/12 07:51:36;;;;;;;;;5.67;5.67;;;;;49.76;18.58;101827.72;5032739;28;46868;-67
2022/07/12 07:54:02;;;;;;;;;4.33;3.67;;;;;49.98;19.02;101828.78;5034823;28;45455;-67
2022/07/12 07:56:28;;;;;;;;;5.67;5.00;;;;;50.20;18.39;101831.06;5036258;28;45312;-67
2022/07/12 07:58:57;;;;;;;;;1.00;0.00;;;;;50.34;18.48;101833.63;5037778;28;45351;-66
2022/07/12 08:01:42;;;;;;;;;8.00;5.00;;;;;50.43;18.63;101832.94;5035292;28;47211;-68
2022/07/12 08:04:18;;;;;;;;;4.33;4.33;;;;;50.42;18.42;101833.41;5029013;28;45461;-69
2022/07/12 08:06:44;;;;;;;;;4.67;4.67;;;;;50.46;18.93;101834.94;5018686;28;45670;-69
2022/07/12 08:09:29;;;;;;;;;3.67;3.67;;;;;50.68;18.13;101840.97;5030486;28;45364;-67
2022/07/12 08:11:54;;;;;;;;;4.67;4.67;;;;;51.02;17.75;101836.56;5033330;28;45990;-67
2022/07/12 08:14:20;;;;;;;;;4.67;4.67;;;;;51.45;17.24;101840.19;5020232;28;45695;-70
2022/07/12 08:16:47;;;;;;;;;7.67;5.33;;;;;51.77;16.80;101838.25;5021214;28;45713;-69
2022/07/12 08:19:13;;;;;;;;;4.33;4.33;;;;;51.99;17.04;101838.31;5041228;28;45393;-69
2022/07/12 08:21:39;;;;;;;;;7.00;5.00;;;;;52.15;16.61;101839.41;5035413;28;45376;-69
2022/07/12 08:24:04;;;;;;;;;6.00;4.00;;;;;52.44;16.63;101839.19;5031053;28;45392;-70
2022/07/12 08:26:29;;;;;;;;;8.00;5.67;;;;;52.64;16.05;101830.00;5018669;28;45370;-70
2022/07/12 08:28:55;;;;;;;;;4.00;4.00;;;;;53.08;16.43;101824.09;5028978;28;45663;-69
2022/07/12 08:31:21;;;;;;;;;5.67;4.00;;;;;53.70;15.66;101834.03;5016129;28;46099;-69
2022/07/12 08:33:47;;;;;;;;;8.67;8.00;;;;;53.92;14.93;101838.97;5028121;28;45718;-69
2022/07/12 08:36:12;;;;;;;;;7.00;5.33;;;;;54.29;15.25;101827.19;5016722;28;46335;-69
2022/07/12 08:38:38;;;;;;;;;7.33;6.00;;;;;54.68;14.88;101818.69;5024934;28;45520;-69
2022/07/12 08:41:06;;;;;;;;;5.67;4.33;;;;;54.83;14.42;101828.41;5027681;28;45808;-70
2022/07/12 08:43:34;;;;;;;;;7.33;5.67;;;;;54.82;14.81;101817.16;5022256;28;45353;-70
2022/07/12 08:46:07;;;;;;;;;3.67;3.67;;;;;54.77;14.36;101829.56;5016822;28;45484;-68
2022/07/12 08:48:34;;;;;;;;;3.67;3.67;;;;;54.72;14.46;101818.50;5026669;28;46162;-69
2022/07/12 08:51:05;;;;;;;;;5.67;5.67;;;;;54.74;14.61;101818.78;5022255;28;45342;-69
2022/07/12 08:53:31;;;;;;;;;8.00;5.00;;;;;54.82;14.61;101820.09;5013259;28;45644;-70
2022/07/12 08:55:57;;;;;;;;;5.00;5.00;;;;;55.00;14.05;101822.16;5014476;28;45496;-71
2022/07/12 08:58:22;;;;;;;;;3.67;3.67;;;;;54.84;13.76;101818.28;5014195;28;45760;-70
2022/07/12 09:00:48;;;;;;;;;3.33;3.33;;;;;54.99;14.24;101821.31;5018262;28;45675;-71
2022/07/12 09:03:14;;;;;;;;;2.00;2.00;;;;;55.23;13.97;101819.72;5020307;28;45395;-69
2022/07/12 09:05:56;;;;;;;;;6.00;4.00;;;;;55.28;14.04;101811.03;5014438;28;45474;-71
2022/07/12 09:08:39;;;;;;;;;3.00;3.00;;;;;55.11;13.65;101821.59;5017653;28;45471;-70
2022/07/12 09:11:05;;;;;;;;;3.00;3.00;;;;;55.03;13.32;101821.16;5018742;28;45920;-69
2022/07/12 09:14:03;;;;;;;;;1.00;1.00;;;;;54.88;13.93;101823.97;5027434;28;45399;-69
2022/07/12 09:16:28;;;;;;;;;3.67;2.67;;;;;54.50;14.07;101814.47;4997033;28;45487;-69
2022/07/12 09:19:17;;;;;;;;;2.67;2.67;;;;;54.59;13.54;101815.72;5022385;28;45421;-71
2022/07/12 09:21:51;;;;;;;;;5.67;5.67;;;;;55.18;13.20;101815.34;5015055;28;46448;-68
2022/07/12 09:24:17;;;;;;;;;3.00;2.00;;;;;55.23;12.94;101819.72;5016256;28;45432;-69
2022/07/12 09:26:43;;;;;;;;;0.67;0.67;;;;;54.97;12.08;101820.19;5028116;28;45407;-68
2022/07/12 09:29:10;;;;;;;;;0.67;0.67;;;;;54.93;12.14;101819.53;5024190;28;46140;-69
2022/07/12 09:31:40;;;;;;;;;2.33;2.33;;;;;54.93;12.21;101819.53;5019236;28;46940;-69
2022/07/12 09:36:56;;;;;;;;;1.67;1.67;;;;;55.78;12.78;101812.69;5019581;28;45384;-71
2022/07/12 09:39:25;;;;;;;;;1.33;1.33;;;;;56.11;11.74;101821.38;5018889;28;45994;-71
2022/07/12 09:41:53;;;;;;;;;2.00;2.00;;;;;56.27;11.52;101816.34;5019473;28;46309;-69
2022/07/12 09:44:20;;;;;;;;;1.00;1.00;;;;;56.68;11.24;101822.44;5013744;28;45358;-69
2022/07/12 09:46:47;;;;;;;;;0.67;0.67;;;;;56.53;11.08;101820.28;5013904;28;45554;-72
2022/07/12 09:49:13;;;;;;;;;1.33;1.33;;;;;55.98;11.23;101817.91;5021506;28;47023;-70
2022/07/12 09:51:43;;;;;;;;;1.67;1.67;;;;;55.93;11.25;101827.44;5022047;28;46303;-70
2022/07/12 09:54:11;;;;;;;;;1.00;1.00;;;;;56.19;11.17;101822.63;5024396;28;45690;-73
2022/07/12 09:56:42;;;;;;;;;2.00;0.00;;;;;56.28;11.08;101823.88;5017359;28;45808;-71
2022/07/12 09:59:12;;;;;;;;;1.67;1.67;;;;;56.43;10.82;101827.63;5014126;28;45785;-72
2022/07/12 10:01:38;;;;;;;;;2.00;1.67;;;;;56.49;10.41;101828.56;5023981;28;47272;-72
2022/07/12 10:04:05;;;;;;;;;0.67;0.67;;;;;56.18;10.23;101831.97;5015490;28;45747;-71
2022/07/12 10:06:30;;;;;;;;;2.00;2.00;;;;;56.14;10.43;101823.31;5021713;28;46549;-73
2022/07/12 10:08:56;;;;;;;;;1.67;1.67;;;;;56.35;10.53;101826.41;5024204;28;45780;-73
2022/07/12 10:11:24;;;;;;;;;1.00;1.00;;;;;56.73;10.99;101822.56;5018860;28;46198;-72
2022/07/12 10:13:51;;;;;;;;;2.33;2.33;;;;;57.12;10.03;101821.53;5022406;28;45677;-71
2022/07/12 10:16:26;;;;;;;;;0.67;0.67;;;;;57.20;10.27;101816.88;5012607;28;45806;-72
2022/07/12 10:19:26;;;;;;;;;3.00;2.00;;;;;57.05;9.92;101810.19;5021551;28;46478;-70
2022/07/12 10:21:53;;;;;;;;;2.00;2.00;;;;;56.64;10.83;101810.06;5029657;28;47928;-70
2022/07/12 10:24:41;;;;;;;;;2.00;2.00;;;;;55.92;10.95;101808.94;5018656;28;45431;-71
2022/07/12 10:27:30;;;;;;;;;1.67;1.67;;;;;55.23;11.04;101805.03;5011723;28;45634;-73
2022/07/12 10:30:13;;;;;;;;;2.33;2.33;;;;;54.65;10.96;101802.84;5011275;28;45717;-72
2022/07/12 10:32:42;;;;;;;;;3.00;3.00;;;;;53.91;11.19;101814.66;5014946;28;45943;-71
2022/07/12 10:35:13;;;;;;;;;2.00;2.00;;;;;53.19;11.77;101811.09;5012770;28;45525;-72
2022/07/12 10:37:39;;;;;;;;;2.67;2.67;;;;;52.57;11.68;101812.75;5017727;28;45299;-72
2022/07/12 10:40:34;;;;;;;;;2.33;2.33;;;;;52.17;11.79;101814.25;5015448;28;45741;-73
2022/07/12 10:43:05;;;;;;;;;2.00;2.00;;;;;52.23;11.67;101811.53;5016938;28;46643;-70
2022/07/12 10:45:32;;;;;;;;;2.00;2.00;;;;;52.08;12.16;101796.63;5012476;28;45779;-74
2022/07/12 10:48:27;;;;;;;;;2.00;2.00;;;;;52.48;12.33;101809.75;5017957;28;45508;-72
2022/07/12 10:50:59;;;;;;;;;2.00;2.00;;;;;53.04;11.73;101811.69;5022201;28;47020;-76
2022/07/12 10:53:26;;;;;;;;;1.00;1.00;;;;;53.72;11.39;101813.84;5019883;28;46290;-72
2022/07/12 10:56:15;;;;;;;;;4.00;2.00;;;;;54.30;11.34;101811.22;5016120;28;45717;-71
2022/07/12 10:58:55;;;;;;;;;3.00;3.00;;;;;54.49;10.49;101806.94;5015986;28;45619;-74
2022/07/12 11:01:25;;;;;;;;;3.67;2.00;;;;;54.54;10.54;101807.59;5020447;28;46102;-72
2022/07/12 11:03:56;;;;;;;;;2.00;2.00;;;;;53.98;10.67;101801.78;5023351;28;45744;-70
2022/07/12 11:06:25;;;;;;;;;3.00;2.00;;;;;54.03;10.97;101809.13;5019540;28;45532;-72
2022/07/12 11:08:59;;;;;;;;;1.00;1.00;;;;;53.42;10.89;101806.75;5020408;28;45525;-73
2022/07/12 11:11:28;;;;;;;;;2.00;2.00;;;;;52.74;10.81;101799.50;5021943;28;45381;-74
2022/07/12 11:13:54;;;;;;;;;3.33;3.33;;;;;52.17;11.14;101795.88;5020912;28;45793;-73
2022/07/12 11:16:21;;;;;;;;;1.33;1.33;;;;;51.61;11.45;101795.38;5014908;28;45798;-71
2022/07/12 11:18:46;;;;;;;;;2.00;2.00;;;;;51.28;11.78;101788.97;5017244;28;45455;-70
2022/07/12 11:21:12;;;;;;;;;2.00;2.00;;;;;50.79;11.25;101790.97;5022219;28;45995;-68
2022/07/12 11:23:40;;;;;;;;;3.67;2.00;;;;;50.24;11.95;101782.19;5017551;28;46178;-71
2022/07/12 11:26:06;;;;;;;;;3.33;3.33;;;;;49.05;12.23;101796.16;5017134;28;45515;-68
2022/07/12 11:28:32;;;;;;;;;3.33;3.33;;;;;47.38;13.35;101795.75;5015279;28;45869;-72
2022/07/12 11:31:05;;;;;;;;;2.00;2.00;;;;;45.82;13.99;101787.41;5020565;28;45512;-68